sensor_id;sensor_type;location;lat;lon;timestamp;pressure;altitude;pressure_sealevel;temperature;humidity
61292;BME280;47165;42.664;23.368;2023-05-25T00:01:24;94961.78;;;19.70;54.44
61292;BME280;47165;42.664;23.368;2023-05-25T00:03:51;94966.25;;;19.60;55.20
61292;BME280;47165;42.664;23.368;2023-05-25T00:06:17;94967.94;;;19.61;54.70
61292;BME280;47165;42.664;23.368;2023-05-25T00:08:44;94969.59;;;19.62;54.57
61292;BME280;47165;42.664;23.368;2023-05-25T00:11:10;94970.19;;;19.56;54.62
61292;BME280;47165;42.664;23.368;2023-05-25T00:13:37;94973.53;;;19.48;55.03
61292;BME280;47165;42.664;23.368;2023-05-25T00:16:03;94964.94;;;19.36;55.75
61292;BME280;47165;42.664;23.368;2023-05-25T00:18:28;94974.84;;;19.34;55.66
61292;BME280;47165;42.664;23.368;2023-05-25T00:20:54;94973.00;;;19.25;56.42
61292;BME280;47165;42.664;23.368;2023-05-25T00:23:19;94970.66;;;19.22;56.43
61292;BME280;47165;42.664;23.368;2023-05-25T00:25:45;94971.06;;;19.17;56.53
61292;BME280;47165;42.664;23.368;2023-05-25T00:28:11;94973.88;;;19.16;56.41
61292;BME280;47165;42.664;23.368;2023-05-25T00:30:37;94973.19;;;19.14;56.77
61292;BME280;47165;42.664;23.368;2023-05-25T00:33:02;94968.84;;;19.13;56.27
61292;BME280;47165;42.664;23.368;2023-05-25T00:35:28;94966.19;;;19.13;56.33
61292;BME280;47165;42.664;23.368;2023-05-25T00:37:53;94973.56;;;19.19;56.54
61292;BME280;47165;42.664;23.368;2023-05-25T00:40:19;94971.34;;;19.14;56.72
61292;BME280;47165;42.664;23.368;2023-05-25T00:42:45;94984.19;;;18.99;56.96
61292;BME280;47165;42.664;23.368;2023-05-25T00:45:11;94979.72;;;18.90;57.36
61292;BME280;47165;42.664;23.368;2023-05-25T00:47:38;94980.00;;;18.87;57.38
61292;BME280;47165;42.664;23.368;2023-05-25T00:50:07;94982.28;;;18.51;58.62
61292;BME280;47165;42.664;23.368;2023-05-25T00:52:33;94982.56;;;18.48;58.67
61292;BME280;47165;42.664;23.368;2023-05-25T00:54:59;94986.84;;;18.39;58.69
61292;BME280;47165;42.664;23.368;2023-05-25T00:57:27;94979.16;;;18.26;59.00
61292;BME280;47165;42.664;23.368;2023-05-25T00:59:53;94980.41;;;18.22;59.32
61292;BME280;47165;42.664;23.368;2023-05-25T01:02:21;94980.25;;;18.14;59.46
61292;BME280;47165;42.664;23.368;2023-05-25T01:04:50;94985.53;;;18.14;59.40
61292;BME280;47165;42.664;23.368;2023-05-25T01:07:20;94991.22;;;18.09;59.67
61292;BME280;47165;42.664;23.368;2023-05-25T01:09:49;94996.50;;;18.09;59.63
61292;BME280;47165;42.664;23.368;2023-05-25T01:12:18;94993.44;;;18.14;59.43
61292;BME280;47165;42.664;23.368;2023-05-25T01:14:46;94990.69;;;18.16;59.22
61292;BME280;47165;42.664;23.368;2023-05-25T01:17:13;95000.59;;;18.23;59.20
61292;BME280;47165;42.664;23.368;2023-05-25T01:19:40;94993.53;;;18.34;58.42
61292;BME280;47165;42.664;23.368;2023-05-25T01:22:32;94983.91;;;18.33;58.59
61292;BME280;47165;42.664;23.368;2023-05-25T01:25:07;94982.88;;;18.14;59.49
61292;BME280;47165;42.664;23.368;2023-05-25T01:30:05;94982.81;;;17.95;60.28
61292;BME280;47165;42.664;23.368;2023-05-25T01:32:35;94981.41;;;17.91;60.32
61292;BME280;47165;42.664;23.368;2023-05-25T01:35:03;94979.47;;;17.93;60.39
61292;BME280;47165;42.664;23.368;2023-05-25T01:37:29;94981.31;;;18.02;59.96
61292;BME280;47165;42.664;23.368;2023-05-25T01:39:55;94976.72;;;18.04;59.64
61292;BME280;47165;42.664;23.368;2023-05-25T01:42:21;94965.81;;;17.87;59.31
61292;BME280;47165;42.664;23.368;2023-05-25T01:44:47;94974.91;;;17.95;58.89
61292;BME280;47165;42.664;23.368;2023-05-25T01:52:31;94958.22;;;17.73;59.00
61292;BME280;47165;42.664;23.368;2023-05-25T01:55:04;94959.56;;;17.67;59.27
61292;BME280;47165;42.664;23.368;2023-05-25T01:57:36;94958.63;;;17.68;59.14
61292;BME280;47165;42.664;23.368;2023-05-25T02:00:03;94965.97;;;17.65;59.61
61292;BME280;47165;42.664;23.368;2023-05-25T02:02:30;94972.47;;;17.61;59.58
61292;BME280;47165;42.664;23.368;2023-05-25T02:04:57;94964.31;;;17.64;59.50
61292;BME280;47165;42.664;23.368;2023-05-25T02:07:23;94973.09;;;17.74;59.03
61292;BME280;47165;42.664;23.368;2023-05-25T02:09:49;94970.66;;;17.82;58.83
61292;BME280;47165;42.664;23.368;2023-05-25T02:12:15;94967.06;;;17.83;58.61
61292;BME280;47165;42.664;23.368;2023-05-25T02:14:40;94971.88;;;17.78;58.81
61292;BME280;47165;42.664;23.368;2023-05-25T02:17:06;94968.78;;;17.73;58.74
61292;BME280;47165;42.664;23.368;2023-05-25T02:19:34;94976.97;;;17.70;59.15
61292;BME280;47165;42.664;23.368;2023-05-25T02:21:59;94984.56;;;17.63;59.14
61292;BME280;47165;42.664;23.368;2023-05-25T02:24:25;94976.81;;;17.72;58.72
61292;BME280;47165;42.664;23.368;2023-05-25T02:26:50;94990.25;;;17.59;59.41
61292;BME280;47165;42.664;23.368;2023-05-25T02:29:16;94980.66;;;17.58;59.66
61292;BME280;47165;42.664;23.368;2023-05-25T02:31:42;94982.31;;;17.59;59.96
61292;BME280;47165;42.664;23.368;2023-05-25T02:34:07;94994.81;;;17.57;60.02
61292;BME280;47165;42.664;23.368;2023-05-25T02:36:33;94996.22;;;17.61;60.31
61292;BME280;47165;42.664;23.368;2023-05-25T02:38:59;94992.66;;;17.62;60.48
61292;BME280;47165;42.664;23.368;2023-05-25T02:41:25;95009.03;;;17.65;60.03
61292;BME280;47165;42.664;23.368;2023-05-25T02:43:51;95004.09;;;17.51;59.90
61292;BME280;47165;42.664;23.368;2023-05-25T02:46:18;95018.78;;;17.44;60.34
61292;BME280;47165;42.664;23.368;2023-05-25T02:48:43;95014.16;;;17.36;60.91
61292;BME280;47165;42.664;23.368;2023-05-25T02:51:09;95014.97;;;17.37;60.89
61292;BME280;47165;42.664;23.368;2023-05-25T02:53:34;95021.34;;;17.34;61.00
61292;BME280;47165;42.664;23.368;2023-05-25T02:56:01;95028.38;;;17.45;60.50
61292;BME280;47165;42.664;23.368;2023-05-25T02:58:28;95023.09;;;17.45;60.61
61292;BME280;47165;42.664;23.368;2023-05-25T03:00:53;95027.41;;;17.46;59.76
61292;BME280;47165;42.664;23.368;2023-05-25T03:03:19;95025.22;;;17.30;59.85
61292;BME280;47165;42.664;23.368;2023-05-25T03:05:44;95026.50;;;17.15;60.21
61292;BME280;47165;42.664;23.368;2023-05-25T03:08:10;95030.56;;;17.19;60.10
61292;BME280;47165;42.664;23.368;2023-05-25T03:10:35;95027.44;;;17.14;60.46
61292;BME280;47165;42.664;23.368;2023-05-25T03:13:01;95027.56;;;17.12;60.22
61292;BME280;47165;42.664;23.368;2023-05-25T03:15:26;95034.53;;;17.13;60.08
61292;BME280;47165;42.664;23.368;2023-05-25T03:17:51;95031.91;;;17.13;60.24
61292;BME280;47165;42.664;23.368;2023-05-25T03:20:18;95030.72;;;17.06;60.49
61292;BME280;47165;42.664;23.368;2023-05-25T03:22:45;95032.72;;;17.14;60.52
61292;BME280;47165;42.664;23.368;2023-05-25T03:25:11;95031.41;;;16.76;62.14
61292;BME280;47165;42.664;23.368;2023-05-25T03:27:37;95041.69;;;16.79;62.08
61292;BME280;47165;42.664;23.368;2023-05-25T03:30:04;95041.09;;;16.75;61.78
61292;BME280;47165;42.664;23.368;2023-05-25T03:32:29;95038.69;;;16.83;61.64
61292;BME280;47165;42.664;23.368;2023-05-25T03:34:56;95038.94;;;16.80;61.58
61292;BME280;47165;42.664;23.368;2023-05-25T03:37:21;95040.88;;;16.78;61.68
61292;BME280;47165;42.664;23.368;2023-05-25T03:39:47;95043.00;;;16.73;61.82
61292;BME280;47165;42.664;23.368;2023-05-25T03:42:12;95039.06;;;16.79;61.76
61292;BME280;47165;42.664;23.368;2023-05-25T03:44:38;95035.94;;;16.85;61.62
61292;BME280;47165;42.664;23.368;2023-05-25T03:47:03;95036.22;;;16.82;61.65
61292;BME280;47165;42.664;23.368;2023-05-25T03:49:29;95030.94;;;16.82;61.87
61292;BME280;47165;42.664;23.368;2023-05-25T03:51:56;95039.78;;;16.92;61.56
61292;BME280;47165;42.664;23.368;2023-05-25T03:54:24;95036.50;;;17.00;61.24
61292;BME280;47165;42.664;23.368;2023-05-25T03:56:50;95039.72;;;17.03;60.98
61292;BME280;47165;42.664;23.368;2023-05-25T03:59:15;95038.13;;;17.12;60.76
61292;BME280;47165;42.664;23.368;2023-05-25T04:01:40;95042.78;;;17.20;60.53
61292;BME280;47165;42.664;23.368;2023-05-25T04:04:06;95041.22;;;17.17;60.37
61292;BME280;47165;42.664;23.368;2023-05-25T04:06:31;95056.56;;;17.23;60.44
61292;BME280;47165;42.664;23.368;2023-05-25T04:08:58;95054.88;;;17.22;60.45
61292;BME280;47165;42.664;23.368;2023-05-25T04:11:23;95063.38;;;17.26;60.40
61292;BME280;47165;42.664;23.368;2023-05-25T04:13:50;95062.03;;;17.32;60.75
61292;BME280;47165;42.664;23.368;2023-05-25T04:16:15;95058.19;;;17.36;60.19
61292;BME280;47165;42.664;23.368;2023-05-25T04:18:41;95067.84;;;17.46;59.55
61292;BME280;47165;42.664;23.368;2023-05-25T04:21:06;95067.72;;;17.48;59.38
61292;BME280;47165;42.664;23.368;2023-05-25T04:23:32;95071.47;;;17.45;60.01
61292;BME280;47165;42.664;23.368;2023-05-25T04:25:58;95070.56;;;17.56;59.84
61292;BME280;47165;42.664;23.368;2023-05-25T04:28:24;95072.09;;;17.59;60.12
61292;BME280;47165;42.664;23.368;2023-05-25T04:30:50;95076.63;;;17.68;59.20
61292;BME280;47165;42.664;23.368;2023-05-25T04:33:15;95073.72;;;17.71;59.01
61292;BME280;47165;42.664;23.368;2023-05-25T04:35:42;95079.69;;;17.73;58.93
61292;BME280;47165;42.664;23.368;2023-05-25T04:38:07;95084.22;;;17.82;58.61
61292;BME280;47165;42.664;23.368;2023-05-25T04:40:33;95084.56;;;17.89;58.30
61292;BME280;47165;42.664;23.368;2023-05-25T04:43:00;95090.16;;;17.96;58.22
61292;BME280;47165;42.664;23.368;2023-05-25T04:45:25;95087.81;;;18.02;58.11
61292;BME280;47165;42.664;23.368;2023-05-25T04:47:53;95070.44;;;18.00;57.81
61292;BME280;47165;42.664;23.368;2023-05-25T04:50:20;95091.09;;;18.16;57.75
61292;BME280;47165;42.664;23.368;2023-05-25T04:52:46;95084.75;;;18.28;57.83
61292;BME280;47165;42.664;23.368;2023-05-25T04:55:11;95081.41;;;18.26;58.15
61292;BME280;47165;42.664;23.368;2023-05-25T04:57:37;95077.13;;;18.35;57.49
61292;BME280;47165;42.664;23.368;2023-05-25T05:00:02;95058.63;;;18.35;57.48
61292;BME280;47165;42.664;23.368;2023-05-25T05:02:30;95064.91;;;18.43;57.60
61292;BME280;47165;42.664;23.368;2023-05-25T05:04:55;95063.53;;;18.49;57.28
61292;BME280;47165;42.664;23.368;2023-05-25T05:07:21;95069.13;;;18.56;57.34
61292;BME280;47165;42.664;23.368;2023-05-25T05:09:47;95066.34;;;18.57;57.18
61292;BME280;47165;42.664;23.368;2023-05-25T05:12:12;95064.81;;;18.55;57.22
61292;BME280;47165;42.664;23.368;2023-05-25T05:14:38;95064.28;;;18.61;56.65
61292;BME280;47165;42.664;23.368;2023-05-25T05:17:03;95067.22;;;18.67;56.87
61292;BME280;47165;42.664;23.368;2023-05-25T05:19:29;95060.81;;;18.70;56.66
61292;BME280;47165;42.664;23.368;2023-05-25T05:21:55;95070.44;;;18.71;56.56
61292;BME280;47165;42.664;23.368;2023-05-25T05:24:20;95071.69;;;18.67;56.83
61292;BME280;47165;42.664;23.368;2023-05-25T05:26:46;95072.81;;;18.74;56.90
61292;BME280;47165;42.664;23.368;2023-05-25T05:29:11;95065.16;;;18.71;57.28
61292;BME280;47165;42.664;23.368;2023-05-25T05:31:37;95080.81;;;18.84;57.29
61292;BME280;47165;42.664;23.368;2023-05-25T05:34:02;95084.25;;;18.75;58.09
61292;BME280;47165;42.664;23.368;2023-05-25T05:36:28;95082.13;;;18.78;58.08
61292;BME280;47165;42.664;23.368;2023-05-25T05:38:53;95089.31;;;18.87;57.80
61292;BME280;47165;42.664;23.368;2023-05-25T05:41:20;95085.28;;;18.93;57.92
61292;BME280;47165;42.664;23.368;2023-05-25T05:43:45;95090.28;;;18.96;58.07
61292;BME280;47165;42.664;23.368;2023-05-25T05:46:11;95091.00;;;18.98;58.68
61292;BME280;47165;42.664;23.368;2023-05-25T05:48:37;95096.56;;;19.05;58.59
61292;BME280;47165;42.664;23.368;2023-05-25T05:51:03;95091.16;;;19.06;58.87
61292;BME280;47165;42.664;23.368;2023-05-25T05:53:29;95096.72;;;19.13;58.71
61292;BME280;47165;42.664;23.368;2023-05-25T05:55:54;95095.09;;;19.22;58.92
61292;BME280;47165;42.664;23.368;2023-05-25T05:58:27;95099.41;;;19.33;58.85
61292;BME280;47165;42.664;23.368;2023-05-25T06:00:53;95100.78;;;19.37;58.55
61292;BME280;47165;42.664;23.368;2023-05-25T06:03:19;95097.00;;;19.29;58.30
61292;BME280;47165;42.664;23.368;2023-05-25T06:05:45;95092.81;;;19.17;58.57
61292;BME280;47165;42.664;23.368;2023-05-25T06:08:11;95093.13;;;19.34;57.88
61292;BME280;47165;42.664;23.368;2023-05-25T06:10:38;95088.69;;;19.34;58.28
61292;BME280;47165;42.664;23.368;2023-05-25T06:13:03;95097.31;;;19.46;57.84
61292;BME280;47165;42.664;23.368;2023-05-25T06:15:28;95097.59;;;19.53;57.78
61292;BME280;47165;42.664;23.368;2023-05-25T06:17:54;95097.31;;;19.56;58.00
61292;BME280;47165;42.664;23.368;2023-05-25T06:20:19;95102.75;;;19.64;57.79
61292;BME280;47165;42.664;23.368;2023-05-25T06:22:45;95101.25;;;19.71;57.30
61292;BME280;47165;42.664;23.368;2023-05-25T06:25:10;95098.03;;;19.77;56.89
61292;BME280;47165;42.664;23.368;2023-05-25T06:27:36;95104.72;;;19.81;57.17
61292;BME280;47165;42.664;23.368;2023-05-25T06:30:02;95092.28;;;19.92;57.17
61292;BME280;47165;42.664;23.368;2023-05-25T06:32:27;95097.72;;;20.00;56.98
61292;BME280;47165;42.664;23.368;2023-05-25T06:34:52;95098.13;;;20.05;56.76
61292;BME280;47165;42.664;23.368;2023-05-25T06:37:18;95103.41;;;20.05;57.00
61292;BME280;47165;42.664;23.368;2023-05-25T06:39:43;95099.91;;;20.14;56.76
61292;BME280;47165;42.664;23.368;2023-05-25T06:42:09;95099.47;;;20.19;56.45
61292;BME280;47165;42.664;23.368;2023-05-25T06:44:36;95107.09;;;20.32;56.44
61292;BME280;47165;42.664;23.368;2023-05-25T06:47:01;95101.22;;;20.38;56.52
61292;BME280;47165;42.664;23.368;2023-05-25T06:49:28;95113.06;;;20.53;56.26
61292;BME280;47165;42.664;23.368;2023-05-25T06:51:53;95097.13;;;20.53;55.68
61292;BME280;47165;42.664;23.368;2023-05-25T06:54:18;95101.59;;;20.62;55.36
61292;BME280;47165;42.664;23.368;2023-05-25T06:56:44;95108.50;;;20.73;55.28
61292;BME280;47165;42.664;23.368;2023-05-25T06:59:10;95102.78;;;20.78;55.04
61292;BME280;47165;42.664;23.368;2023-05-25T07:01:35;95098.47;;;20.67;55.36
61292;BME280;47165;42.664;23.368;2023-05-25T07:04:01;95099.97;;;20.79;55.01
61292;BME280;47165;42.664;23.368;2023-05-25T07:06:26;95106.50;;;20.85;54.92
61292;BME280;47165;42.664;23.368;2023-05-25T07:08:52;95089.25;;;20.99;53.69
61292;BME280;47165;42.664;23.368;2023-05-25T07:11:19;95095.47;;;21.07;53.61
61292;BME280;47165;42.664;23.368;2023-05-25T07:13:46;95088.13;;;21.19;54.00
61292;BME280;47165;42.664;23.368;2023-05-25T07:16:12;95080.53;;;21.24;53.42
61292;BME280;47165;42.664;23.368;2023-05-25T07:18:38;95091.09;;;21.34;53.43
61292;BME280;47165;42.664;23.368;2023-05-25T07:21:05;95091.97;;;21.53;52.96
61292;BME280;47165;42.664;23.368;2023-05-25T07:23:34;95086.72;;;21.61;52.69
61292;BME280;47165;42.664;23.368;2023-05-25T07:26:00;95092.09;;;21.69;52.80
61292;BME280;47165;42.664;23.368;2023-05-25T07:28:26;95081.94;;;21.64;52.29
61292;BME280;47165;42.664;23.368;2023-05-25T07:30:51;95094.44;;;21.90;52.08
61292;BME280;47165;42.664;23.368;2023-05-25T07:33:16;95095.03;;;22.02;51.76
61292;BME280;47165;42.664;23.368;2023-05-25T07:35:42;95097.13;;;22.16;51.24
61292;BME280;47165;42.664;23.368;2023-05-25T07:38:08;95097.72;;;22.10;51.38
61292;BME280;47165;42.664;23.368;2023-05-25T07:40:33;95101.91;;;22.13;51.32
61292;BME280;47165;42.664;23.368;2023-05-25T07:42:58;95099.72;;;22.26;50.51
61292;BME280;47165;42.664;23.368;2023-05-25T07:45:24;95097.19;;;22.24;50.20
61292;BME280;47165;42.664;23.368;2023-05-25T07:47:50;95098.75;;;22.35;50.42
61292;BME280;47165;42.664;23.368;2023-05-25T07:50:15;95094.78;;;22.39;50.26
61292;BME280;47165;42.664;23.368;2023-05-25T07:52:41;95103.28;;;22.43;50.53
61292;BME280;47165;42.664;23.368;2023-05-25T07:55:07;95103.13;;;22.44;50.85
61292;BME280;47165;42.664;23.368;2023-05-25T07:57:33;95106.97;;;22.42;51.16
61292;BME280;47165;42.664;23.368;2023-05-25T07:59:58;95105.66;;;22.46;51.54
61292;BME280;47165;42.664;23.368;2023-05-25T08:02:24;95117.13;;;22.46;51.85
61292;BME280;47165;42.664;23.368;2023-05-25T08:04:50;95108.41;;;22.36;52.61
61292;BME280;47165;42.664;23.368;2023-05-25T08:07:17;95123.78;;;21.80;54.22
61292;BME280;47165;42.664;23.368;2023-05-25T08:09:43;95133.56;;;21.80;54.46
61292;BME280;47165;42.664;23.368;2023-05-25T08:12:08;95136.75;;;21.83;54.53
61292;BME280;47165;42.664;23.368;2023-05-25T08:14:34;95130.94;;;21.62;54.30
61292;BME280;47165;42.664;23.368;2023-05-25T08:16:59;95139.03;;;21.60;55.09
61292;BME280;47165;42.664;23.368;2023-05-25T08:19:25;95150.13;;;21.28;56.01
61292;BME280;47165;42.664;23.368;2023-05-25T08:21:51;95154.69;;;21.45;54.85
61292;BME280;47165;42.664;23.368;2023-05-25T08:24:16;95150.47;;;21.43;54.44
61292;BME280;47165;42.664;23.368;2023-05-25T08:26:41;95161.00;;;21.35;54.28
61292;BME280;47165;42.664;23.368;2023-05-25T08:29:07;95159.88;;;21.09;55.34
61292;BME280;47165;42.664;23.368;2023-05-25T08:31:33;95172.88;;;21.13;55.66
61292;BME280;47165;42.664;23.368;2023-05-25T08:33:59;95178.13;;;20.95;56.01
61292;BME280;47165;42.664;23.368;2023-05-25T08:36:26;95169.13;;;21.05;55.38
61292;BME280;47165;42.664;23.368;2023-05-25T08:38:51;95180.53;;;20.88;55.99
61292;BME280;47165;42.664;23.368;2023-05-25T08:41:18;95185.00;;;20.87;56.39
61292;BME280;47165;42.664;23.368;2023-05-25T08:43:44;95187.09;;;20.27;58.67
61292;BME280;47165;42.664;23.368;2023-05-25T08:46:10;95187.66;;;20.30;59.01
61292;BME280;47165;42.664;23.368;2023-05-25T08:48:36;95184.84;;;20.42;58.54
61292;BME280;47165;42.664;23.368;2023-05-25T08:51:10;95182.59;;;20.47;58.58
61292;BME280;47165;42.664;23.368;2023-05-25T08:53:39;95189.44;;;20.49;58.30
61292;BME280;47165;42.664;23.368;2023-05-25T08:56:20;95189.56;;;20.48;58.53
61292;BME280;47165;42.664;23.368;2023-05-25T09:01:36;95197.69;;;20.37;59.21
61292;BME280;47165;42.664;23.368;2023-05-25T09:04:03;95207.50;;;20.26;60.01
61292;BME280;47165;42.664;23.368;2023-05-25T09:06:29;95195.75;;;20.29;60.67
61292;BME280;47165;42.664;23.368;2023-05-25T09:08:55;95208.88;;;20.30;61.41
61292;BME280;47165;42.664;23.368;2023-05-25T09:11:21;95204.44;;;20.02;63.07
61292;BME280;47165;42.664;23.368;2023-05-25T09:13:47;95208.75;;;19.93;63.52
61292;BME280;47165;42.664;23.368;2023-05-25T09:16:13;95212.53;;;19.71;64.49
61292;BME280;47165;42.664;23.368;2023-05-25T09:18:40;95206.63;;;19.67;63.33
61292;BME280;47165;42.664;23.368;2023-05-25T09:21:05;95212.94;;;19.76;63.65
61292;BME280;47165;42.664;23.368;2023-05-25T09:23:31;95214.31;;;19.80;64.33
61292;BME280;47165;42.664;23.368;2023-05-25T09:25:56;95205.56;;;19.89;64.71
61292;BME280;47165;42.664;23.368;2023-05-25T09:28:22;95195.50;;;19.93;66.27
61292;BME280;47165;42.664;23.368;2023-05-25T09:30:47;95202.19;;;19.97;67.46
61292;BME280;47165;42.664;23.368;2023-05-25T09:33:14;95201.09;;;20.00;66.31
61292;BME280;47165;42.664;23.368;2023-05-25T09:35:44;95199.84;;;20.04;63.58
61292;BME280;47165;42.664;23.368;2023-05-25T09:38:13;95191.44;;;19.99;63.36
61292;BME280;47165;42.664;23.368;2023-05-25T09:40:39;95189.09;;;19.76;64.35
61292;BME280;47165;42.664;23.368;2023-05-25T09:43:05;95192.44;;;19.78;64.38
61292;BME280;47165;42.664;23.368;2023-05-25T09:45:30;95193.97;;;19.90;64.07
61292;BME280;47165;42.664;23.368;2023-05-25T09:47:57;95189.63;;;20.09;64.19
61292;BME280;47165;42.664;23.368;2023-05-25T09:50:23;95190.72;;;20.26;63.94
61292;BME280;47165;42.664;23.368;2023-05-25T09:52:48;95185.00;;;20.30;63.45
61292;BME280;47165;42.664;23.368;2023-05-25T09:55:14;95182.19;;;20.32;63.40
61292;BME280;47165;42.664;23.368;2023-05-25T09:57:40;95178.41;;;20.44;62.57
61292;BME280;47165;42.664;23.368;2023-05-25T10:00:07;95177.84;;;20.60;63.54
61292;BME280;47165;42.664;23.368;2023-05-25T10:02:34;95177.81;;;20.70;64.25
61292;BME280;47165;42.664;23.368;2023-05-25T10:05:00;95173.06;;;20.74;64.65
61292;BME280;47165;42.664;23.368;2023-05-25T10:07:25;95173.53;;;20.87;64.00
61292;BME280;47165;42.664;23.368;2023-05-25T10:09:53;95176.88;;;20.89;63.88
61292;BME280;47165;42.664;23.368;2023-05-25T10:12:21;95174.66;;;20.94;61.60
61292;BME280;47165;42.664;23.368;2023-05-25T10:14:49;95165.91;;;21.02;61.78
61292;BME280;47165;42.664;23.368;2023-05-25T10:17:22;95160.38;;;21.23;61.95
61292;BME280;47165;42.664;23.368;2023-05-25T10:19:54;95157.66;;;21.33;60.09
61292;BME280;47165;42.664;23.368;2023-05-25T10:22:29;95155.03;;;21.50;60.70
61292;BME280;47165;42.664;23.368;2023-05-25T10:25:02;95151.41;;;21.52;58.27
61292;BME280;47165;42.664;23.368;2023-05-25T10:27:38;95143.53;;;21.60;57.90
61292;BME280;47165;42.664;23.368;2023-05-25T10:30:05;95145.94;;;21.71;57.99
61292;BME280;47165;42.664;23.368;2023-05-25T10:32:33;95129.63;;;21.66;56.96
61292;BME280;47165;42.664;23.368;2023-05-25T10:35:01;95124.00;;;21.51;55.05
61292;BME280;47165;42.664;23.368;2023-05-25T10:37:28;95126.28;;;21.64;55.66
61292;BME280;47165;42.664;23.368;2023-05-25T10:39:55;95118.59;;;21.79;56.22
61292;BME280;47165;42.664;23.368;2023-05-25T10:42:21;95114.72;;;21.55;56.42
61292;BME280;47165;42.664;23.368;2023-05-25T10:44:47;95108.81;;;21.79;55.87
61292;BME280;47165;42.664;23.368;2023-05-25T10:47:14;95108.69;;;22.07;55.51
61292;BME280;47165;42.664;23.368;2023-05-25T10:49:54;95108.75;;;22.15;54.75
61292;BME280;47165;42.664;23.368;2023-05-25T10:52:20;95109.00;;;22.04;55.89
61292;BME280;47165;42.664;23.368;2023-05-25T10:54:47;95107.00;;;21.62;55.55
61292;BME280;47165;42.664;23.368;2023-05-25T10:57:18;95101.72;;;21.88;55.60
61292;BME280;47165;42.664;23.368;2023-05-25T10:59:59;95094.81;;;21.95;56.09
61292;BME280;47165;42.664;23.368;2023-05-25T11:02:28;95092.63;;;22.17;55.46
61292;BME280;47165;42.664;23.368;2023-05-25T11:07:52;95087.97;;;22.37;57.33
61292;BME280;47165;42.664;23.368;2023-05-25T11:16:19;95087.59;;;22.66;58.50
61292;BME280;47165;42.664;23.368;2023-05-25T11:18:56;95093.69;;;22.50;54.23
61292;BME280;47165;42.664;23.368;2023-05-25T11:23:56;95089.00;;;22.44;52.29
61292;BME280;47165;42.664;23.368;2023-05-25T11:26:27;95092.97;;;22.40;52.46
61292;BME280;47165;42.664;23.368;2023-05-25T11:28:53;95086.69;;;22.49;53.36
61292;BME280;47165;42.664;23.368;2023-05-25T11:31:24;95091.19;;;22.48;51.42
61292;BME280;47165;42.664;23.368;2023-05-25T11:33:55;95096.72;;;22.29;51.48
61292;BME280;47165;42.664;23.368;2023-05-25T11:36:22;95099.28;;;22.39;50.99
61292;BME280;47165;42.664;23.368;2023-05-25T11:38:47;95093.59;;;22.34;52.79
61292;BME280;47165;42.664;23.368;2023-05-25T11:41:22;95093.81;;;22.40;52.14
61292;BME280;47165;42.664;23.368;2023-05-25T11:43:49;95082.97;;;22.34;51.65
61292;BME280;47165;42.664;23.368;2023-05-25T11:46:17;95085.72;;;22.50;52.07
61292;BME280;47165;42.664;23.368;2023-05-25T11:48:52;95090.03;;;22.51;53.07
61292;BME280;47165;42.664;23.368;2023-05-25T11:51:27;95091.34;;;22.47;52.31
61292;BME280;47165;42.664;23.368;2023-05-25T11:53:52;95081.97;;;22.35;51.69
61292;BME280;47165;42.664;23.368;2023-05-25T11:56:19;95091.66;;;22.44;51.64
61292;BME280;47165;42.664;23.368;2023-05-25T11:58:45;95080.41;;;22.50;51.22
61292;BME280;47165;42.664;23.368;2023-05-25T12:03:41;95078.50;;;22.77;52.50
61292;BME280;47165;42.664;23.368;2023-05-25T12:06:07;95081.47;;;23.08;53.44
61292;BME280;47165;42.664;23.368;2023-05-25T12:08:33;95079.38;;;23.28;50.35
61292;BME280;47165;42.664;23.368;2023-05-25T12:11:00;95084.06;;;23.59;50.59
61292;BME280;47165;42.664;23.368;2023-05-25T12:13:25;95083.75;;;23.95;48.79
61292;BME280;47165;42.664;23.368;2023-05-25T12:15:54;95073.34;;;24.41;45.40
61292;BME280;47165;42.664;23.368;2023-05-25T12:18:22;95067.63;;;24.60;45.42
61292;BME280;47165;42.664;23.368;2023-05-25T12:20:48;95068.31;;;24.62;43.20
61292;BME280;47165;42.664;23.368;2023-05-25T12:23:13;95058.19;;;25.52;41.40
61292;BME280;47165;42.664;23.368;2023-05-25T12:25:39;95051.09;;;26.35;37.82
61292;BME280;47165;42.664;23.368;2023-05-25T12:28:14;95049.06;;;27.47;35.86
61292;BME280;47165;42.664;23.368;2023-05-25T12:30:40;95037.81;;;28.58;35.68
61292;BME280;47165;42.664;23.368;2023-05-25T12:33:06;95039.28;;;29.77;35.73
61292;BME280;47165;42.664;23.368;2023-05-25T12:35:48;95028.63;;;30.89;32.37
61292;BME280;47165;42.664;23.368;2023-05-25T12:38:16;95022.59;;;31.39;29.92
61292;BME280;47165;42.664;23.368;2023-05-25T12:40:41;95016.50;;;31.57;28.50
61292;BME280;47165;42.664;23.368;2023-05-25T12:43:07;95011.50;;;31.85;28.42
61292;BME280;47165;42.664;23.368;2023-05-25T12:45:38;95005.41;;;32.65;27.57
61292;BME280;47165;42.664;23.368;2023-05-25T12:48:03;95004.34;;;33.22;26.98
61292;BME280;47165;42.664;23.368;2023-05-25T12:50:29;95002.44;;;33.22;27.05
61292;BME280;47165;42.664;23.368;2023-05-25T12:53:00;95000.44;;;32.99;26.30
61292;BME280;47165;42.664;23.368;2023-05-25T12:55:28;94998.22;;;31.52;28.39
61292;BME280;47165;42.664;23.368;2023-05-25T12:57:58;94990.63;;;32.24;26.74
61292;BME280;47165;42.664;23.368;2023-05-25T13:00:38;94986.56;;;32.34;25.44
61292;BME280;47165;42.664;23.368;2023-05-25T13:03:05;94979.78;;;32.68;25.51
61292;BME280;47165;42.664;23.368;2023-05-25T13:05:35;94974.50;;;33.10;26.52
61292;BME280;47165;42.664;23.368;2023-05-25T13:08:02;94974.00;;;32.83;24.60
61292;BME280;47165;42.664;23.368;2023-05-25T13:10:29;94961.66;;;33.36;25.23
61292;BME280;47165;42.664;23.368;2023-05-25T13:12:55;94960.75;;;33.72;26.08